sensor_id;sensor_type;location;lat;lon;timestamp;temperature;humidity
1429;DHT22;708;51.442;7.016;2023-04-25T00:00:20;8.90;99.90
1429;DHT22;708;51.442;7.016;2023-04-25T00:02:46;9.00;99.90
1429;DHT22;708;51.442;7.016;2023-04-25T00:05:13;9.00;1.00
1429;DHT22;708;51.442;7.016;2023-04-25T00:07:41;9.10;1.00
1429;DHT22;708;51.442;7.016;2023-04-25T00:10:09;9.10;1.00
1429;DHT22;708;51.442;7.016;2023-04-25T00:12:38;9.20;1.00
1429;DHT22;708;51.442;7.016;2023-04-25T00:15:06;9.30;99.90
1429;DHT22;708;51.442;7.016;2023-04-25T00:17:32;9.30;99.90
1429;DHT22;708;51.442;7.016;2023-04-25T00:20:00;9.30;94.00
1429;DHT22;708;51.442;7.016;2023-04-25T00:22:30;9.30;63.80
1429;DHT22;708;51.442;7.016;2023-04-25T00:24:56;9.30;99.90
1429;DHT22;708;51.442;7.016;2023-04-25T00:27:25;9.40;99.90
1429;DHT22;708;51.442;7.016;2023-04-25T00:29:53;9.40;99.90
1429;DHT22;708;51.442;7.016;2023-04-25T00:32:20;9.40;37.70
1429;DHT22;708;51.442;7.016;2023-04-25T00:34:46;9.40;86.30
1429;DHT22;708;51.442;7.016;2023-04-25T00:37:13;9.40;99.90
1429;DHT22;708;51.442;7.016;2023-04-25T00:39:40;9.40;99.90
1429;DHT22;708;51.442;7.016;2023-04-25T00:42:07;9.40;99.90
1429;DHT22;708;51.442;7.016;2023-04-25T00:44:35;9.40;99.90
1429;DHT22;708;51.442;7.016;2023-04-25T00:47:04;9.40;99.90
1429;DHT22;708;51.442;7.016;2023-04-25T00:49:31;9.40;99.90
1429;DHT22;708;51.442;7.016;2023-04-25T00:51:58;9.40;99.90
1429;DHT22;708;51.442;7.016;2023-04-25T00:54:25;9.40;99.90
1429;DHT22;708;51.442;7.016;2023-04-25T00:56:52;9.40;99.90
1429;DHT22;708;51.442;7.016;2023-04-25T00:59:19;9.40;1.00
1429;DHT22;708;51.442;7.016;2023-04-25T01:01:47;9.40;99.90
1429;DHT22;708;51.442;7.016;2023-04-25T01:04:15;9.50;99.90
1429;DHT22;708;51.442;7.016;2023-04-25T01:06:41;9.50;99.90
1429;DHT22;708;51.442;7.016;2023-04-25T01:09:08;9.50;99.90
1429;DHT22;708;51.442;7.016;2023-04-25T01:11:35;9.50;99.90
1429;DHT22;708;51.442;7.016;2023-04-25T01:14:02;9.50;99.90
1429;DHT22;708;51.442;7.016;2023-04-25T01:16:29;9.50;47.70
1429;DHT22;708;51.442;7.016;2023-04-25T01:18:56;9.50;1.00
1429;DHT22;708;51.442;7.016;2023-04-25T01:21:25;9.50;1.00
1429;DHT22;708;51.442;7.016;2023-04-25T01:23:54;9.50;99.30
1429;DHT22;708;51.442;7.016;2023-04-25T01:26:21;9.50;99.90
1429;DHT22;708;51.442;7.016;2023-04-25T01:28:48;9.50;99.90
1429;DHT22;708;51.442;7.016;2023-04-25T01:31:15;9.40;99.90
1429;DHT22;708;51.442;7.016;2023-04-25T01:33:43;9.40;99.90
1429;DHT22;708;51.442;7.016;2023-04-25T01:36:09;9.40;1.00
1429;DHT22;708;51.442;7.016;2023-04-25T01:38:38;9.40;1.00
1429;DHT22;708;51.442;7.016;2023-04-25T01:41:05;9.40;1.00
1429;DHT22;708;51.442;7.016;2023-04-25T01:43:32;9.40;1.00
1429;DHT22;708;51.442;7.016;2023-04-25T01:45:59;9.40;40.40
1429;DHT22;708;51.442;7.016;2023-04-25T01:48:26;9.40;1.00
1429;DHT22;708;51.442;7.016;2023-04-25T01:50:53;9.40;1.00
1429;DHT22;708;51.442;7.016;2023-04-25T01:53:19;9.40;99.90
1429;DHT22;708;51.442;7.016;2023-04-25T01:55:48;9.40;99.90
1429;DHT22;708;51.442;7.016;2023-04-25T01:58:14;9.40;99.90
1429;DHT22;708;51.442;7.016;2023-04-25T02:00:41;9.40;99.90
1429;DHT22;708;51.442;7.016;2023-04-25T02:03:08;9.40;99.90
1429;DHT22;708;51.442;7.016;2023-04-25T02:05:35;9.40;99.90
1429;DHT22;708;51.442;7.016;2023-04-25T02:08:02;9.30;99.90
1429;DHT22;708;51.442;7.016;2023-04-25T02:10:29;9.30;99.90
1429;DHT22;708;51.442;7.016;2023-04-25T02:12:58;9.30;1.00
1429;DHT22;708;51.442;7.016;2023-04-25T02:15:25;9.30;1.00
1429;DHT22;708;51.442;7.016;2023-04-25T02:24:36;9.30;1.00
1429;DHT22;708;51.442;7.016;2023-04-25T02:27:03;9.30;1.00
1429;DHT22;708;51.442;7.016;2023-04-25T02:29:31;9.30;1.00
1429;DHT22;708;51.442;7.016;2023-04-25T02:31:58;9.30;1.00
1429;DHT22;708;51.442;7.016;2023-04-25T02:34:25;9.30;1.00
1429;DHT22;708;51.442;7.016;2023-04-25T02:36:53;9.30;1.00
1429;DHT22;708;51.442;7.016;2023-04-25T02:39:20;9.30;13.70
1429;DHT22;708;51.442;7.016;2023-04-25T02:41:47;9.30;23.00
1429;DHT22;708;51.442;7.016;2023-04-25T02:44:14;9.30;34.30
1429;DHT22;708;51.442;7.016;2023-04-25T02:46:42;9.30;63.60
1429;DHT22;708;51.442;7.016;2023-04-25T02:49:09;9.30;96.30
1429;DHT22;708;51.442;7.016;2023-04-25T02:51:36;9.30;99.90
1429;DHT22;708;51.442;7.016;2023-04-25T02:54:02;9.40;99.90
1429;DHT22;708;51.442;7.016;2023-04-25T02:56:29;9.40;83.50
1429;DHT22;708;51.442;7.016;2023-04-25T02:58:56;9.40;99.90
1429;DHT22;708;51.442;7.016;2023-04-25T03:01:23;9.40;99.90
1429;DHT22;708;51.442;7.016;2023-04-25T03:03:51;9.40;99.90
1429;DHT22;708;51.442;7.016;2023-04-25T03:06:17;9.40;99.90
1429;DHT22;708;51.442;7.016;2023-04-25T03:08:44;9.40;99.90
1429;DHT22;708;51.442;7.016;2023-04-25T03:11:11;9.40;99.90
1429;DHT22;708;51.442;7.016;2023-04-25T03:13:37;9.40;99.90
1429;DHT22;708;51.442;7.016;2023-04-25T03:16:05;9.40;99.90
1429;DHT22;708;51.442;7.016;2023-04-25T03:18:31;9.40;99.90
1429;DHT22;708;51.442;7.016;2023-04-25T03:21:00;9.40;99.90
1429;DHT22;708;51.442;7.016;2023-04-25T03:23:26;9.40;99.90
1429;DHT22;708;51.442;7.016;2023-04-25T03:25:53;9.40;99.90
1429;DHT22;708;51.442;7.016;2023-04-25T03:28:20;9.40;99.90
1429;DHT22;708;51.442;7.016;2023-04-25T03:30:47;9.40;99.90
1429;DHT22;708;51.442;7.016;2023-04-25T03:33:13;9.30;99.90
1429;DHT22;708;51.442;7.016;2023-04-25T03:35:40;9.30;99.90
1429;DHT22;708;51.442;7.016;2023-04-25T03:38:09;9.20;99.90
1429;DHT22;708;51.442;7.016;2023-04-25T03:40:36;9.10;99.90
1429;DHT22;708;51.442;7.016;2023-04-25T03:43:02;9.10;99.90
1429;DHT22;708;51.442;7.016;2023-04-25T03:45:29;9.10;99.90
1429;DHT22;708;51.442;7.016;2023-04-25T03:47:56;9.10;99.90
1429;DHT22;708;51.442;7.016;2023-04-25T03:50:22;9.10;99.90
1429;DHT22;708;51.442;7.016;2023-04-25T03:52:49;9.10;99.90
1429;DHT22;708;51.442;7.016;2023-04-25T03:55:17;9.20;99.90
1429;DHT22;708;51.442;7.016;2023-04-25T03:57:44;9.10;87.80
1429;DHT22;708;51.442;7.016;2023-04-25T04:00:12;9.10;35.50
1429;DHT22;708;51.442;7.016;2023-04-25T04:02:39;9.10;53.70
1429;DHT22;708;51.442;7.016;2023-04-25T04:05:06;9.10;52.70
1429;DHT22;708;51.442;7.016;2023-04-25T04:07:33;9.10;77.80
1429;DHT22;708;51.442;7.016;2023-04-25T04:10:05;9.10;99.90
1429;DHT22;708;51.442;7.016;2023-04-25T04:12:34;9.10;99.90
1429;DHT22;708;51.442;7.016;2023-04-25T04:15:01;9.10;99.90
1429;DHT22;708;51.442;7.016;2023-04-25T04:17:28;9.00;99.90
1429;DHT22;708;51.442;7.016;2023-04-25T04:19:55;8.90;99.90
1429;DHT22;708;51.442;7.016;2023-04-25T04:22:22;8.90;1.00
1429;DHT22;708;51.442;7.016;2023-04-25T04:24:49;8.90;1.00
1429;DHT22;708;51.442;7.016;2023-04-25T04:27:17;8.90;1.00
1429;DHT22;708;51.442;7.016;2023-04-25T04:29:46;8.90;1.00
1429;DHT22;708;51.442;7.016;2023-04-25T04:32:13;8.90;1.00
1429;DHT22;708;51.442;7.016;2023-04-25T04:34:40;8.90;1.00
1429;DHT22;708;51.442;7.016;2023-04-25T04:37:08;9.00;1.00
1429;DHT22;708;51.442;7.016;2023-04-25T04:39:35;8.90;99.90
1429;DHT22;708;51.442;7.016;2023-04-25T04:42:02;8.90;99.90
1429;DHT22;708;51.442;7.016;2023-04-25T04:44:30;8.90;99.90
1429;DHT22;708;51.442;7.016;2023-04-25T04:47:01;8.90;99.90
1429;DHT22;708;51.442;7.016;2023-04-25T04:49:29;8.90;99.90
1429;DHT22;708;51.442;7.016;2023-04-25T04:51:55;8.80;99.90
1429;DHT22;708;51.442;7.016;2023-04-25T04:54:22;8.80;99.90
1429;DHT22;708;51.442;7.016;2023-04-25T04:56:49;8.70;99.90
1429;DHT22;708;51.442;7.016;2023-04-25T04:59:15;8.70;99.90
1429;DHT22;708;51.442;7.016;2023-04-25T05:01:42;8.70;1.00
1429;DHT22;708;51.442;7.016;2023-04-25T05:04:10;8.80;1.00
1429;DHT22;708;51.442;7.016;2023-04-25T05:06:37;8.90;99.90
1429;DHT22;708;51.442;7.016;2023-04-25T05:09:04;8.90;99.90
1429;DHT22;708;51.442;7.016;2023-04-25T05:11:30;9.00;99.90
1429;DHT22;708;51.442;7.016;2023-04-25T05:13:57;9.10;99.90
1429;DHT22;708;51.442;7.016;2023-04-25T05:16:24;9.10;99.90
1429;DHT22;708;51.442;7.016;2023-04-25T05:18:50;9.10;99.90
1429;DHT22;708;51.442;7.016;2023-04-25T05:21:18;9.20;99.90
1429;DHT22;708;51.442;7.016;2023-04-25T05:23:45;9.20;99.90
1429;DHT22;708;51.442;7.016;2023-04-25T05:26:12;9.30;99.90
1429;DHT22;708;51.442;7.016;2023-04-25T05:28:40;9.30;99.90
1429;DHT22;708;51.442;7.016;2023-04-25T05:31:07;9.40;26.30
1429;DHT22;708;51.442;7.016;2023-04-25T05:33:34;9.50;1.00
1429;DHT22;708;51.442;7.016;2023-04-25T05:36:00;9.70;1.00
1429;DHT22;708;51.442;7.016;2023-04-25T05:38:28;9.80;99.90
1429;DHT22;708;51.442;7.016;2023-04-25T05:40:55;10.00;99.90
1429;DHT22;708;51.442;7.016;2023-04-25T05:43:22;10.00;99.90
1429;DHT22;708;51.442;7.016;2023-04-25T05:45:49;10.00;14.60
1429;DHT22;708;51.442;7.016;2023-04-25T05:48:16;10.10;1.00
1429;DHT22;708;51.442;7.016;2023-04-25T05:50:42;10.20;1.00
1429;DHT22;708;51.442;7.016;2023-04-25T05:53:09;10.20;1.00
1429;DHT22;708;51.442;7.016;2023-04-25T05:55:37;10.20;99.90
1429;DHT22;708;51.442;7.016;2023-04-25T05:58:05;10.30;87.60
1429;DHT22;708;51.442;7.016;2023-04-25T06:00:32;10.30;1.00
1429;DHT22;708;51.442;7.016;2023-04-25T06:02:59;10.30;99.90
1429;DHT22;708;51.442;7.016;2023-04-25T06:05:26;10.40;99.90
1429;DHT22;708;51.442;7.016;2023-04-25T06:07:53;10.50;99.90
1429;DHT22;708;51.442;7.016;2023-04-25T06:10:20;10.50;1.00
1429;DHT22;708;51.442;7.016;2023-04-25T06:12:48;10.70;99.90
1429;DHT22;708;51.442;7.016;2023-04-25T06:15:15;10.80;20.50
1429;DHT22;708;51.442;7.016;2023-04-25T06:17:42;11.00;99.90
1429;DHT22;708;51.442;7.016;2023-04-25T06:20:09;11.20;99.90
1429;DHT22;708;51.442;7.016;2023-04-25T06:22:36;11.30;99.90
1429;DHT22;708;51.442;7.016;2023-04-25T06:25:03;11.40;16.00
1429;DHT22;708;51.442;7.016;2023-04-25T06:27:30;11.60;22.50
1429;DHT22;708;51.442;7.016;2023-04-25T06:29:58;12.10;1.00
1429;DHT22;708;51.442;7.016;2023-04-25T06:32:25;13.00;99.90
1429;DHT22;708;51.442;7.016;2023-04-25T06:34:53;13.90;99.90
1429;DHT22;708;51.442;7.016;2023-04-25T06:37:20;15.30;99.90
1429;DHT22;708;51.442;7.016;2023-04-25T06:39:46;17.10;99.90
1429;DHT22;708;51.442;7.016;2023-04-25T06:42:13;18.50;99.90
1429;DHT22;708;51.442;7.016;2023-04-25T06:44:40;19.80;99.90
1429;DHT22;708;51.442;7.016;2023-04-25T06:47:08;20.30;97.80
1429;DHT22;708;51.442;7.016;2023-04-25T06:49:35;19.90;93.80
1429;DHT22;708;51.442;7.016;2023-04-25T06:52:02;18.70;92.10
1429;DHT22;708;51.442;7.016;2023-04-25T06:54:29;17.50;92.60
1429;DHT22;708;51.442;7.016;2023-04-25T06:56:56;16.40;93.50
1429;DHT22;708;51.442;7.016;2023-04-25T06:59:22;15.40;99.90
1429;DHT22;708;51.442;7.016;2023-04-25T07:01:49;14.60;99.90
1429;DHT22;708;51.442;7.016;2023-04-25T07:04:17;13.70;99.90
1429;DHT22;708;51.442;7.016;2023-04-25T07:06:44;13.10;99.90
1429;DHT22;708;51.442;7.016;2023-04-25T07:09:13;12.80;99.90
1429;DHT22;708;51.442;7.016;2023-04-25T07:11:40;12.40;99.90
1429;DHT22;708;51.442;7.016;2023-04-25T07:14:06;12.30;99.90
1429;DHT22;708;51.442;7.016;2023-04-25T07:16:33;12.10;99.90
1429;DHT22;708;51.442;7.016;2023-04-25T07:19:00;12.00;99.90
1429;DHT22;708;51.442;7.016;2023-04-25T07:21:28;12.00;99.90
1429;DHT22;708;51.442;7.016;2023-04-25T07:23:56;11.90;99.90
1429;DHT22;708;51.442;7.016;2023-04-25T07:26:23;11.90;99.90
1429;DHT22;708;51.442;7.016;2023-04-25T07:28:50;11.90;99.90
1429;DHT22;708;51.442;7.016;2023-04-25T07:31:16;12.10;99.90
1429;DHT22;708;51.442;7.016;2023-04-25T07:33:43;12.30;99.90
1429;DHT22;708;51.442;7.016;2023-04-25T07:36:11;12.40;99.90
1429;DHT22;708;51.442;7.016;2023-04-25T07:38:39;12.70;99.90
1429;DHT22;708;51.442;7.016;2023-04-25T07:41:06;13.00;99.90
1429;DHT22;708;51.442;7.016;2023-04-25T07:43:33;13.30;99.90
1429;DHT22;708;51.442;7.016;2023-04-25T07:45:59;13.60;99.90
1429;DHT22;708;51.442;7.016;2023-04-25T07:48:26;13.70;99.90
1429;DHT22;708;51.442;7.016;2023-04-25T07:50:53;13.90;99.90
1429;DHT22;708;51.442;7.016;2023-04-25T07:53:19;14.80;99.90
1429;DHT22;708;51.442;7.016;2023-04-25T07:55:48;15.60;97.20
1429;DHT22;708;51.442;7.016;2023-04-25T07:58:14;16.40;94.00
1429;DHT22;708;51.442;7.016;2023-04-25T08:00:46;17.30;90.70
1429;DHT22;708;51.442;7.016;2023-04-25T08:03:13;18.00;85.60
1429;DHT22;708;51.442;7.016;2023-04-25T08:05:39;18.00;92.20
1429;DHT22;708;51.442;7.016;2023-04-25T08:08:06;18.20;79.40
1429;DHT22;708;51.442;7.016;2023-04-25T08:10:33;18.50;78.00
1429;DHT22;708;51.442;7.016;2023-04-25T08:13:01;18.40;76.70
1429;DHT22;708;51.442;7.016;2023-04-25T08:15:28;18.10;72.90
1429;DHT22;708;51.442;7.016;2023-04-25T08:17:55;17.90;69.80
1429;DHT22;708;51.442;7.016;2023-04-25T08:20:22;17.70;69.60
1429;DHT22;708;51.442;7.016;2023-04-25T08:22:48;18.30;69.80
1429;DHT22;708;51.442;7.016;2023-04-25T08:25:15;18.30;68.30
1429;DHT22;708;51.442;7.016;2023-04-25T08:27:42;18.90;68.10
1429;DHT22;708;51.442;7.016;2023-04-25T08:30:11;19.60;66.60
1429;DHT22;708;51.442;7.016;2023-04-25T08:32:38;19.40;65.50
1429;DHT22;708;51.442;7.016;2023-04-25T08:35:05;19.50;64.60
1429;DHT22;708;51.442;7.016;2023-04-25T08:37:32;19.70;63.60
1429;DHT22;708;51.442;7.016;2023-04-25T08:39:59;19.30;61.60
1429;DHT22;708;51.442;7.016;2023-04-25T08:42:27;18.70;61.80
1429;DHT22;708;51.442;7.016;2023-04-25T08:44:54;18.10;61.10
1429;DHT22;708;51.442;7.016;2023-04-25T08:47:23;17.20;61.10
1429;DHT22;708;51.442;7.016;2023-04-25T08:49:53;16.70;60.70
1429;DHT22;708;51.442;7.016;2023-04-25T08:52:22;16.30;61.90
1429;DHT22;708;51.442;7.016;2023-04-25T08:54:49;16.20;62.50
1429;DHT22;708;51.442;7.016;2023-04-25T08:57:18;16.40;63.00
1429;DHT22;708;51.442;7.016;2023-04-25T08:59:46;16.70;64.60
1429;DHT22;708;51.442;7.016;2023-04-25T09:02:14;17.00;62.90
1429;DHT22;708;51.442;7.016;2023-04-25T09:04:44;17.40;63.30
1429;DHT22;708;51.442;7.016;2023-04-25T09:07:11;17.70;61.40
1429;DHT22;708;51.442;7.016;2023-04-25T09:09:41;17.80;60.30
1429;DHT22;708;51.442;7.016;2023-04-25T09:12:08;18.10;59.30
1429;DHT22;708;51.442;7.016;2023-04-25T09:14:35;18.60;58.10
1429;DHT22;708;51.442;7.016;2023-04-25T09:17:03;18.40;57.60
1429;DHT22;708;51.442;7.016;2023-04-25T09:19:31;18.20;56.20
1429;DHT22;708;51.442;7.016;2023-04-25T09:22:01;17.70;55.50
1429;DHT22;708;51.442;7.016;2023-04-25T09:24:33;17.40;54.90
1429;DHT22;708;51.442;7.016;2023-04-25T09:27:00;17.20;56.00
1429;DHT22;708;51.442;7.016;2023-04-25T09:29:31;17.30;55.60
1429;DHT22;708;51.442;7.016;2023-04-25T09:32:11;17.50;55.70
1429;DHT22;708;51.442;7.016;2023-04-25T09:34:39;17.90;55.10
1429;DHT22;708;51.442;7.016;2023-04-25T09:37:08;18.20;54.90
1429;DHT22;708;51.442;7.016;2023-04-25T09:39:36;18.60;54.40
1429;DHT22;708;51.442;7.016;2023-04-25T09:42:04;19.20;52.20
1429;DHT22;708;51.442;7.016;2023-04-25T09:44:30;19.40;52.10
1429;DHT22;708;51.442;7.016;2023-04-25T09:46:57;19.60;62.00
1429;DHT22;708;51.442;7.016;2023-04-25T09:49:25;19.90;49.60
1429;DHT22;708;51.442;7.016;2023-04-25T09:51:55;20.00;48.30
1429;DHT22;708;51.442;7.016;2023-04-25T09:54:25;20.00;48.30
1429;DHT22;708;51.442;7.016;2023-04-25T09:56:53;19.60;47.40
1429;DHT22;708;51.442;7.016;2023-04-25T09:59:20;19.10;46.20
1429;DHT22;708;51.442;7.016;2023-04-25T10:01:48;18.90;46.90
1429;DHT22;708;51.442;7.016;2023-04-25T10:04:18;18.70;46.50
1429;DHT22;708;51.442;7.016;2023-04-25T10:06:46;18.80;45.60
1429;DHT22;708;51.442;7.016;2023-04-25T10:09:15;19.20;45.20
1429;DHT22;708;51.442;7.016;2023-04-25T10:11:45;19.60;45.60
1429;DHT22;708;51.442;7.016;2023-04-25T10:14:13;20.00;46.10
1429;DHT22;708;51.442;7.016;2023-04-25T10:16:41;20.00;44.70
1429;DHT22;708;51.442;7.016;2023-04-25T10:19:09;19.40;43.80
1429;DHT22;708;51.442;7.016;2023-04-25T10:21:40;19.20;43.90
1429;DHT22;708;51.442;7.016;2023-04-25T10:24:11;18.90;44.00
1429;DHT22;708;51.442;7.016;2023-04-25T10:26:38;18.50;43.70
1429;DHT22;708;51.442;7.016;2023-04-25T10:29:07;18.00;43.40
1429;DHT22;708;51.442;7.016;2023-04-25T10:31:33;17.50;42.40
1429;DHT22;708;51.442;7.016;2023-04-25T10:34:10;17.00;42.60
1429;DHT22;708;51.442;7.016;2023-04-25T10:36:37;16.80;42.90
1429;DHT22;708;51.442;7.016;2023-04-25T10:39:08;16.70;41.90
1429;DHT22;708;51.442;7.016;2023-04-25T10:41:52;16.60;42.30
1429;DHT22;708;51.442;7.016;2023-04-25T10:44:20;16.40;42.60
1429;DHT22;708;51.442;7.016;2023-04-25T10:46:47;16.30;42.50
1429;DHT22;708;51.442;7.016;2023-04-25T10:49:29;16.10;42.90
1429;DHT22;708;51.442;7.016;2023-04-25T10:52:12;15.90;43.00
1429;DHT22;708;51.442;7.016;2023-04-25T10:54:41;15.40;43.20
1429;DHT22;708;51.442;7.016;2023-04-25T10:57:26;14.90;43.80
1429;DHT22;708;51.442;7.016;2023-04-25T10:59:58;14.50;45.70
1429;DHT22;708;51.442;7.016;2023-04-25T11:02:26;14.00;49.50
1429;DHT22;708;51.442;7.016;2023-04-25T11:04:54;13.70;54.50
1429;DHT22;708;51.442;7.016;2023-04-25T11:07:29;13.50;59.40
1429;DHT22;708;51.442;7.016;2023-04-25T11:09:57;13.30;66.10
1429;DHT22;708;51.442;7.016;2023-04-25T11:12:30;13.20;69.00
1429;DHT22;708;51.442;7.016;2023-04-25T11:15:05;13.00;71.60
1429;DHT22;708;51.442;7.016;2023-04-25T11:17:33;13.00;76.00
1429;DHT22;708;51.442;7.016;2023-04-25T11:20:01;13.00;74.00
1429;DHT22;708;51.442;7.016;2023-04-25T11:22:32;12.90;75.00
1429;DHT22;708;51.442;7.016;2023-04-25T11:25:05;13.00;74.30
1429;DHT22;708;51.442;7.016;2023-04-25T11:27:32;13.30;78.20
1429;DHT22;708;51.442;7.016;2023-04-25T11:30:10;13.70;74.50
1429;DHT22;708;51.442;7.016;2023-04-25T11:32:37;14.20;68.90
1429;DHT22;708;51.442;7.016;2023-04-25T11:35:06;14.50;67.70
1429;DHT22;708;51.442;7.016;2023-04-25T11:37:33;15.00;65.80
1429;DHT22;708;51.442;7.016;2023-04-25T11:40:00;15.40;61.40
1429;DHT22;708;51.442;7.016;2023-04-25T11:42:27;15.50;58.90
1429;DHT22;708;51.442;7.016;2023-04-25T11:44:53;15.30;56.60
1429;DHT22;708;51.442;7.016;2023-04-25T11:47:28;15.20;57.50
1429;DHT22;708;51.442;7.016;2023-04-25T11:49:55;15.00;55.90
1429;DHT22;708;51.442;7.016;2023-04-25T11:52:21;14.80;55.70
1429;DHT22;708;51.442;7.016;2023-04-25T11:54:48;14.70;55.70
1429;DHT22;708;51.442;7.016;2023-04-25T11:57:18;14.50;55.60
1429;DHT22;708;51.442;7.016;2023-04-25T11:59:45;14.40;55.20
1429;DHT22;708;51.442;7.016;2023-04-25T12:02:25;14.50;55.00
1429;DHT22;708;51.442;7.016;2023-04-25T12:04:52;14.50;56.20
1429;DHT22;708;51.442;7.016;2023-04-25T12:07:19;14.80;55.60
1429;DHT22;708;51.442;7.016;2023-04-25T12:09:51;15.00;54.30
1429;DHT22;708;51.442;7.016;2023-04-25T12:12:18;15.00;54.30
1429;DHT22;708;51.442;7.016;2023-04-25T12:14:47;15.10;53.30
1429;DHT22;708;51.442;7.016;2023-04-25T12:17:17;15.10;52.90
1429;DHT22;708;51.442;7.016;2023-04-25T12:19:47;15.10;52.50
1429;DHT22;708;51.442;7.016;2023-04-25T12:22:21;15.00;52.60
1429;DHT22;708;51.442;7.016;2023-04-25T12:24:48;15.00;52.60
1429;DHT22;708;51.442;7.016;2023-04-25T12:27:17;15.00;54.00
1429;DHT22;708;51.442;7.016;2023-04-25T12:29:51;15.10;53.50
1429;DHT22;708;51.442;7.016;2023-04-25T12:32:19;15.30;52.20
1429;DHT22;708;51.442;7.016;2023-04-25T12:34:47;15.40;52.80
1429;DHT22;708;51.442;7.016;2023-04-25T12:37:13;15.50;53.00
1429;DHT22;708;51.442;7.016;2023-04-25T12:39:40;15.70;52.30
1429;DHT22;708;51.442;7.016;2023-04-25T12:42:07;15.70;52.30
1429;DHT22;708;51.442;7.016;2023-04-25T12:44:37;15.80;52.10
1429;DHT22;708;51.442;7.016;2023-04-25T12:47:04;15.90;51.60
1429;DHT22;708;51.442;7.016;2023-04-25T12:49:31;16.10;49.90
1429;DHT22;708;51.442;7.016;2023-04-25T12:51:59;16.20;47.50
1429;DHT22;708;51.442;7.016;2023-04-25T12:54:26;16.30;46.60
1429;DHT22;708;51.442;7.016;2023-04-25T12:56:53;16.50;46.70
1429;DHT22;708;51.442;7.016;2023-04-25T12:59:20;16.70;45.50
1429;DHT22;708;51.442;7.016;2023-04-25T13:01:47;16.90;44.20
1429;DHT22;708;51.442;7.016;2023-04-25T13:04:14;17.00;43.60
1429;DHT22;708;51.442;7.016;2023-04-25T13:06:41;17.20;43.80
1429;DHT22;708;51.442;7.016;2023-04-25T13:09:09;17.20;44.40
1429;DHT22;708;51.442;7.016;2023-04-25T13:11:37;17.00;44.10
1429;DHT22;708;51.442;7.016;2023-04-25T13:14:04;16.70;44.70
1429;DHT22;708;51.442;7.016;2023-04-25T13:16:35;16.20;44.70
1429;DHT22;708;51.442;7.016;2023-04-25T13:19:02;15.70;45.20
1429;DHT22;708;51.442;7.016;2023-04-25T13:21:30;15.10;45.30
1429;DHT22;708;51.442;7.016;2023-04-25T13:23:57;14.80;46.10
1429;DHT22;708;51.442;7.016;2023-04-25T13:26:25;14.10;54.00
1429;DHT22;708;51.442;7.016;2023-04-25T13:28:52;13.60;66.60
1429;DHT22;708;51.442;7.016;2023-04-25T13:31:19;13.10;70.50
1429;DHT22;708;51.442;7.016;2023-04-25T13:33:46;12.80;86.10
1429;DHT22;708;51.442;7.016;2023-04-25T13:36:13;12.60;96.00
1429;DHT22;708;51.442;7.016;2023-04-25T13:38:40;12.70;99.90
1429;DHT22;708;51.442;7.016;2023-04-25T13:41:09;13.00;99.90
1429;DHT22;708;51.442;7.016;2023-04-25T13:43:41;13.50;99.90
1429;DHT22;708;51.442;7.016;2023-04-25T13:46:07;13.90;95.30
1429;DHT22;708;51.442;7.016;2023-04-25T13:48:35;14.30;83.40
1429;DHT22;708;51.442;7.016;2023-04-25T13:51:02;14.60;74.60
1429;DHT22;708;51.442;7.016;2023-04-25T13:53:28;14.80;71.40
1429;DHT22;708;51.442;7.016;2023-04-25T13:55:55;14.90;68.20
1429;DHT22;708;51.442;7.016;2023-04-25T13:58:22;14.90;63.80
1429;DHT22;708;51.442;7.016;2023-04-25T14:00:50;14.90;59.60
1429;DHT22;708;51.442;7.016;2023-04-25T14:03:17;14.80;57.40
1429;DHT22;708;51.442;7.016;2023-04-25T14:05:43;14.80;57.90
1429;DHT22;708;51.442;7.016;2023-04-25T14:08:10;14.80;55.50
1429;DHT22;708;51.442;7.016;2023-04-25T14:10:37;14.70;56.30
1429;DHT22;708;51.442;7.016;2023-04-25T14:13:04;14.70;56.30
1429;DHT22;708;51.442;7.016;2023-04-25T14:15:33;14.50;55.10
1429;DHT22;708;51.442;7.016;2023-04-25T14:18:01;14.40;55.30
1429;DHT22;708;51.442;7.016;2023-04-25T14:20:28;14.50;54.40
1429;DHT22;708;51.442;7.016;2023-04-25T14:22:55;14.60;53.80
1429;DHT22;708;51.442;7.016;2023-04-25T14:25:23;14.50;52.20
1429;DHT22;708;51.442;7.016;2023-04-25T14:27:50;14.50;52.50
1429;DHT22;708;51.442;7.016;2023-04-25T14:30:18;14.60;51.90
1429;DHT22;708;51.442;7.016;2023-04-25T14:32:45;14.80;50.70
1429;DHT22;708;51.442;7.016;2023-04-25T14:35:13;14.70;48.00
1429;DHT22;708;51.442;7.016;2023-04-25T14:37:40;14.70;48.10
1429;DHT22;708;51.442;7.016;2023-04-25T14:40:09;14.50;47.40
1429;DHT22;708;51.442;7.016;2023-04-25T14:42:37;14.50;46.90
1429;DHT22;708;51.442;7.016;2023-04-25T14:45:05;14.40;46.90
1429;DHT22;708;51.442;7.016;2023-04-25T14:47:32;14.40;46.60
1429;DHT22;708;51.442;7.016;2023-04-25T14:50:00;14.60;46.90
1429;DHT22;708;51.442;7.016;2023-04-25T14:52:28;14.60;45.90
1429;DHT22;708;51.442;7.016;2023-04-25T14:54:56;14.60;45.40
1429;DHT22;708;51.442;7.016;2023-04-25T14:57:22;14.60;46.20
1429;DHT22;708;51.442;7.016;2023-04-25T14:59:49;14.40;46.40
1429;DHT22;708;51.442;7.016;2023-04-25T15:02:16;14.20;47.60
1429;DHT22;708;51.442;7.016;2023-04-25T15:04:43;13.80;48.80
1429;DHT22;708;51.442;7.016;2023-04-25T15:07:09;13.80;48.90
1429;DHT22;708;51.442;7.016;2023-04-25T15:09:38;13.90;50.10
1429;DHT22;708;51.442;7.016;2023-04-25T15:12:05;14.00;49.80
1429;DHT22;708;51.442;7.016;2023-04-25T15:14:32;14.00;51.40
1429;DHT22;708;51.442;7.016;2023-04-25T15:16:59;13.90;49.70
1429;DHT22;708;51.442;7.016;2023-04-25T15:19:26;13.80;50.20
1429;DHT22;708;51.442;7.016;2023-04-25T15:21:53;13.70;48.50
1429;DHT22;708;51.442;7.016;2023-04-25T15:24:20;13.60;47.70
1429;DHT22;708;51.442;7.016;2023-04-25T15:26:49;13.60;48.20
1429;DHT22;708;51.442;7.016;2023-04-25T15:29:16;13.50;48.70
1429;DHT22;708;51.442;7.016;2023-04-25T15:31:42;13.50;48.50
1429;DHT22;708;51.442;7.016;2023-04-25T15:34:09;13.40;47.80
1429;DHT22;708;51.442;7.016;2023-04-25T15:36:36;13.30;47.60
1429;DHT22;708;51.442;7.016;2023-04-25T15:39:03;13.10;48.20
1429;DHT22;708;51.442;7.016;2023-04-25T15:41:29;13.10;48.60
1429;DHT22;708;51.442;7.016;2023-04-25T15:43:59;13.10;49.00
1429;DHT22;708;51.442;7.016;2023-04-25T15:46:26;13.10;48.40
1429;DHT22;708;51.442;7.016;2023-04-25T15:48:53;13.20;49.60
1429;DHT22;708;51.442;7.016;2023-04-25T15:51:20;13.20;48.50
1429;DHT22;708;51.442;7.016;2023-04-25T15:53:47;13.40;48.20
1429;DHT22;708;51.442;7.016;2023-04-25T15:56:14;13.40;47.20
1429;DHT22;708;51.442;7.016;2023-04-25T15:58:40;13.40;46.70
1429;DHT22;708;51.442;7.016;2023-04-25T16:01:09;13.40;47.50
1429;DHT22;708;51.442;7.016;2023-04-25T16:03:36;13.40;46.70
1429;DHT22;708;51.442;7.016;2023-04-25T16:06:03;13.50;46.20
1429;DHT22;708;51.442;7.016;2023-04-25T16:08:30;13.70;55.40
1429;DHT22;708;51.442;7.016;2023-04-25T16:10:58;13.80;44.50
1429;DHT22;708;51.442;7.016;2023-04-25T16:13:25;13.80;44.90
1429;DHT22;708;51.442;7.016;2023-04-25T16:15:54;13.70;44.00
1429;DHT22;708;51.442;7.016;2023-04-25T16:18:22;13.60;44.50
1429;DHT22;708;51.442;7.016;2023-04-25T16:20:49;13.30;44.70
1429;DHT22;708;51.442;7.016;2023-04-25T16:23:15;13.20;45.00
1429;DHT22;708;51.442;7.016;2023-04-25T16:25:43;13.20;45.20
1429;DHT22;708;51.442;7.016;2023-04-25T16:28:09;13.30;45.20
1429;DHT22;708;51.442;7.016;2023-04-25T16:30:36;13.30;44.50
1429;DHT22;708;51.442;7.016;2023-04-25T16:33:03;13.20;44.20